Time;durP1;ratioP1;P1;durP2;ratioP2;P2;SDS_P1;SDS_P2;PMS_P1;PMS_P2;Temp;Humidity;BMP_temperature;BMP_pressure;BME280_temperature;BME280_humidity;BME280_pressure;Samples;Min_cycle;Max_cycle;Signal;HPM_P1;HPM_P2
2023/10/10 00:02:19;;;;;;;;;;;14.40;99.90;;;;;;4963509;28;19913;-73
2023/10/10 00:04:47;;;;;;;;;;;14.50;99.90;;;;;;4960361;28;19929;-73
2023/10/10 00:07:14;;;;;;;;;;;14.50;99.90;;;;;;4962408;28;19965;-73
2023/10/10 00:09:44;;;;;;;;;;;14.60;99.90;;;;;;4961736;28;20318;-73
2023/10/10 00:12:26;;;;;;;;;;;14.60;99.90;;;;;;4967194;28;20281;-73
2023/10/10 00:14:53;;;;;;;;;;;14.70;99.90;;;;;;4959807;28;19953;-73
2023/10/10 00:17:20;;;;;;;;;;;14.70;99.90;;;;;;4961570;28;19920;-73
2023/10/10 00:19:52;;;;;;;;;;;14.80;99.90;;;;;;4963530;28;19917;-73
2023/10/10 00:22:25;;;;;;;;;;;14.90;99.90;;;;;;4964200;28;19960;-73
2023/10/10 00:24:51;;;;;;;;;;;14.90;99.90;;;;;;4963943;28;20009;-73
2023/10/10 00:27:16;;;;;;;;;;;14.90;99.90;;;;;;4964795;28;20013;-73
2023/10/10 00:29:44;;;;;;;;;;;14.90;99.90;;;;;;4964297;28;19925;-73
2023/10/10 00:32:16;;;;;;;;;;;14.90;99.90;;;;;;4964469;28;19914;-73
2023/10/10 00:34:48;;;;;;;;;;;14.80;99.90;;;;;;4957504;28;19918;-73
2023/10/10 00:37:14;;;;;;;;;;;14.80;99.90;;;;;;4965093;28;19953;-73
2023/10/10 00:39:40;;;;;;;;;;;14.70;99.90;;;;;;4963153;28;19949;-73
2023/10/10 00:42:08;;;;;;;;;;;14.60;99.90;;;;;;4965639;28;19914;-73
2023/10/10 00:44:37;;;;;;;;;;;14.60;99.90;;;;;;4962535;28;19969;-73
2023/10/10 00:47:03;;;;;;;;;;;14.60;99.90;;;;;;4961600;28;20263;-73
2023/10/10 00:49:31;;;;;;;;;;;14.50;99.90;;;;;;4964940;28;19960;-73
2023/10/10 00:52:01;;;;;;;;;;;14.40;99.90;;;;;;4958014;28;20387;-73
2023/10/10 00:54:30;;;;;;;;;;;14.40;99.90;;;;;;4960305;28;19945;-73
2023/10/10 00:56:57;;;;;;;;;;;14.40;99.90;;;;;;4957207;28;20009;-73
2023/10/10 00:59:29;;;;;;;;;;;14.40;99.90;;;;;;4962734;28;19910;-73
2023/10/10 01:01:55;;;;;;;;;;;14.40;99.90;;;;;;4956791;28;19932;-73
2023/10/10 01:07:07;;;;;;;;;;;14.40;99.90;;;;;;4947533;28;20337;-74
2023/10/10 01:09:34;;;;;;;;;;;14.40;99.90;;;;;;4962607;28;19914;-73
2023/10/10 01:12:04;;;;;;;;;;;14.40;99.90;;;;;;4964759;28;19968;-73
2023/10/10 01:14:30;;;;;;;;;;;14.40;99.90;;;;;;4958256;28;20597;-73
2023/10/10 01:17:05;;;;;;;;;;;14.40;99.90;;;;;;4964100;28;19997;-73
2023/10/10 01:19:34;;;;;;;;;;;14.30;99.90;;;;;;4962063;28;19910;-73
2023/10/10 01:22:03;;;;;;;;;;;14.40;99.90;;;;;;4962910;28;19994;-73
2023/10/10 01:24:32;;;;;;;;;;;14.50;99.90;;;;;;4960086;28;19918;-73
2023/10/10 01:27:13;;;;;;;;;;;14.50;99.90;;;;;;4961068;28;19914;-73
2023/10/10 01:29:49;;;;;;;;;;;14.60;99.90;;;;;;4962521;28;19914;-73
2023/10/10 01:32:17;;;;;;;;;;;14.70;99.90;;;;;;4955408;28;19964;-73
2023/10/10 01:34:45;;;;;;;;;;;14.70;99.90;;;;;;4961317;28;19925;-73
2023/10/10 01:37:20;;;;;;;;;;;14.80;99.90;;;;;;4958419;28;21447;-73
2023/10/10 01:39:55;;;;;;;;;;;14.90;99.90;;;;;;4959672;28;20389;-73
2023/10/10 01:42:31;;;;;;;;;;;15.00;99.90;;;;;;4962186;28;19968;-73
2023/10/10 01:44:57;;;;;;;;;;;15.00;99.90;;;;;;4959328;28;19950;-74
2023/10/10 01:47:34;;;;;;;;;;;15.10;99.90;;;;;;4957259;28;19914;-73
2023/10/10 01:50:01;;;;;;;;;;;15.10;99.90;;;;;;4961102;28;19914;-73
2023/10/10 01:52:27;;;;;;;;;;;15.20;99.90;;;;;;4966036;28;19969;-73
2023/10/10 01:54:53;;;;;;;;;;;15.20;99.90;;;;;;4961752;28;19965;-73
2023/10/10 01:57:22;;;;;;;;;;;15.20;99.90;;;;;;4963358;28;20195;-73
2023/10/10 01:59:48;;;;;;;;;;;15.20;99.90;;;;;;4958918;28;20316;-73
2023/10/10 02:02:16;;;;;;;;;;;15.10;99.90;;;;;;4960522;28;19910;-73
2023/10/10 02:04:45;;;;;;;;;;;15.00;99.90;;;;;;4957380;28;19922;-73
2023/10/10 02:07:17;;;;;;;;;;;15.00;99.90;;;;;;4967468;28;20646;-73
2023/10/10 02:09:53;;;;;;;;;;;14.90;99.90;;;;;;4959600;28;19984;-73
2023/10/10 02:12:22;;;;;;;;;;;14.90;99.90;;;;;;4965108;28;20033;-73
2023/10/10 02:14:47;;;;;;;;;;;14.90;99.90;;;;;;4957171;28;20321;-73
2023/10/10 02:17:24;;;;;;;;;;;14.80;99.90;;;;;;4963005;28;19910;-74
2023/10/10 02:19:54;;;;;;;;;;;14.70;99.90;;;;;;4963515;28;19932;-73
2023/10/10 02:22:32;;;;;;;;;;;14.60;99.90;;;;;;4961229;28;20875;-73
2023/10/10 02:25:46;;;;;;;;;;;14.50;99.90;;;;;;4960598;28;19915;-73
2023/10/10 02:27:55;;;;;;;;;;;14.40;99.90;;;;;;4958185;28;19915;-73
2023/10/10 02:30:34;;;;;;;;;;;14.30;99.90;;;;;;4956769;28;19953;-73
2023/10/10 02:33:14;;;;;;;;;;;14.20;99.90;;;;;;4961258;28;19930;-73
2023/10/10 02:35:58;;;;;;;;;;;14.20;99.90;;;;;;4962302;28;19914;-73
2023/10/10 02:38:39;;;;;;;;;;;14.10;99.90;;;;;;4962829;28;19914;-73
2023/10/10 02:44:02;;;;;;;;;;;14.10;99.90;;;;;;4967399;28;19917;-73
2023/10/10 02:46:35;;;;;;;;;;;14.10;99.90;;;;;;4958030;28;19938;-73
2023/10/10 02:49:09;;;;;;;;;;;14.00;99.90;;;;;;4957281;28;19918;-73
2023/10/10 02:51:41;;;;;;;;;;;14.00;99.90;;;;;;4963868;28;20246;-73
2023/10/10 02:57:26;;;;;;;;;;;14.00;99.90;;;;;;4960825;28;20493;-73
2023/10/10 02:59:44;;;;;;;;;;;14.00;99.90;;;;;;4965080;28;19975;-73
2023/10/10 03:02:18;;;;;;;;;;;14.00;99.90;;;;;;4964317;28;20005;-73
2023/10/10 03:07:29;;;;;;;;;;;13.90;99.90;;;;;;4965374;28;19914;-73
2023/10/10 03:12:41;;;;;;;;;;;13.90;99.90;;;;;;4973169;28;19940;-73
2023/10/10 03:20:24;;;;;;;;;;;13.80;99.90;;;;;;4962354;28;20049;-71
2023/10/10 03:25:47;;;;;;;;;;;13.80;99.90;;;;;;4965015;28;20330;-71
2023/10/10 03:28:20;;;;;;;;;;;13.80;99.90;;;;;;4962302;28;20385;-71
2023/10/10 05:25:07;;;;;;;;;;;15.50;99.90;;;;;;4963884;28;19921;-73
2023/10/10 05:27:33;;;;;;;;;;;15.80;99.90;;;;;;4963126;28;19924;-65
2023/10/10 05:30:04;;;;;;;;;;;16.30;99.90;;;;;;4943391;28;19910;-66
2023/10/10 05:32:32;;;;;;;;;;;16.80;99.90;;;;;;4959959;28;20041;-64
2023/10/10 05:34:58;;;;;;;;;;;17.30;99.90;;;;;;4965928;28;20377;-64
2023/10/10 05:37:25;;;;;;;;;;;17.80;99.90;;;;;;4961082;28;19910;-64
2023/10/10 05:39:56;;;;;;;;;;;18.40;99.90;;;;;;4962539;28;20001;-64
2023/10/10 05:42:25;;;;;;;;;;;18.80;99.90;;;;;;4964256;28;19921;-64
2023/10/10 05:44:51;;;;;;;;;;;19.30;99.90;;;;;;4957305;28;20034;-65
2023/10/10 05:47:17;;;;;;;;;;;19.70;99.90;;;;;;4964694;28;19996;-64
2023/10/10 05:49:43;;;;;;;;;;;20.00;99.90;;;;;;4962659;28;20392;-64
2023/10/10 05:52:10;;;;;;;;;;;20.10;99.90;;;;;;4957285;28;20284;-64
2023/10/10 05:54:38;;;;;;;;;;;20.10;99.90;;;;;;4964315;28;20031;-64
2023/10/10 05:57:05;;;;;;;;;;;19.70;99.90;;;;;;4956341;28;19949;-64
2023/10/10 05:59:32;;;;;;;;;;;19.40;99.90;;;;;;4961941;28;19914;-64
2023/10/10 06:01:57;;;;;;;;;;;19.10;99.90;;;;;;4960925;28;20040;-64
2023/10/10 06:04:23;;;;;;;;;;;18.90;99.90;;;;;;4954262;28;20579;-63
2023/10/10 06:06:48;;;;;;;;;;;18.80;99.90;;;;;;4960344;28;19918;-63
2023/10/10 06:09:18;;;;;;;;;;;18.80;99.90;;;;;;4957054;28;20420;-63
2023/10/10 06:11:44;;;;;;;;;;;18.70;99.90;;;;;;4961098;28;20429;-64
2023/10/10 06:14:11;;;;;;;;;;;18.70;99.90;;;;;;4963930;28;19953;-63
2023/10/10 06:16:37;;;;;;;;;;;18.60;99.90;;;;;;4959206;28;20285;-64
2023/10/10 06:19:03;;;;;;;;;;;18.80;99.90;;;;;;4963537;28;19917;-63
2023/10/10 06:21:32;;;;;;;;;;;19.00;99.90;;;;;;4965778;28;20000;-64
2023/10/10 06:23:57;;;;;;;;;;;19.80;99.90;;;;;;4960476;28;20381;-63
2023/10/10 06:26:24;;;;;;;;;;;20.90;99.90;;;;;;4963069;28;20008;-64
2023/10/10 06:28:53;;;;;;;;;;;21.70;99.90;;;;;;4960635;28;21337;-64
2023/10/10 06:31:23;;;;;;;;;;;22.00;99.90;;;;;;4959237;28;19914;-64
2023/10/10 06:33:52;;;;;;;;;;;22.10;99.90;;;;;;4965914;28;21445;-64
2023/10/10 06:36:32;;;;;;;;;;;21.50;99.90;;;;;;4962431;28;20053;-71
2023/10/10 06:41:35;;;;;;;;;;;20.30;99.90;;;;;;4964231;28;20265;-71
2023/10/10 06:44:01;;;;;;;;;;;19.80;99.90;;;;;;4968433;28;19964;-70
2023/10/10 06:46:32;;;;;;;;;;;19.20;99.90;;;;;;4963929;28;19914;-70
2023/10/10 06:49:04;;;;;;;;;;;18.80;99.90;;;;;;4962397;28;19997;-70
2023/10/10 06:51:39;;;;;;;;;;;18.50;99.90;;;;;;4959948;28;19910;-71
2023/10/10 06:54:08;;;;;;;;;;;18.30;99.90;;;;;;4964347;28;19914;-70
2023/10/10 06:56:53;;;;;;;;;;;18.10;99.90;;;;;;4963983;28;19918;-71
2023/10/10 06:59:25;;;;;;;;;;;17.80;99.90;;;;;;4966545;28;19918;-74
2023/10/10 07:01:50;;;;;;;;;;;17.60;99.90;;;;;;4965726;28;19929;-69
2023/10/10 07:04:16;;;;;;;;;;;17.40;99.90;;;;;;4965623;28;20345;-70
2023/10/10 07:06:48;;;;;;;;;;;17.20;99.90;;;;;;4959861;28;20508;-69
2023/10/10 07:09:14;;;;;;;;;;;17.10;99.90;;;;;;4965320;28;20017;-69
2023/10/10 07:11:40;;;;;;;;;;;17.00;99.90;;;;;;4966708;28;19910;-70
2023/10/10 07:14:09;;;;;;;;;;;16.80;99.90;;;;;;4967882;28;19915;-70
2023/10/10 07:16:34;;;;;;;;;;;16.70;99.90;;;;;;4961506;28;19910;-70
2023/10/10 07:19:19;;;;;;;;;;;16.70;99.90;;;;;;4967829;28;19914;-69
2023/10/10 07:21:45;;;;;;;;;;;16.70;99.90;;;;;;4964043;28;20007;-70
2023/10/10 07:24:15;;;;;;;;;;;16.70;99.90;;;;;;4965707;28;20398;-69
2023/10/10 07:26:46;;;;;;;;;;;16.80;99.90;;;;;;4963107;28;19917;-70
2023/10/10 07:32:15;;;;;;;;;;;16.90;99.90;;;;;;4960416;28;19965;-69
2023/10/10 07:34:50;;;;;;;;;;;16.90;99.90;;;;;;4959475;28;21396;-69
2023/10/10 07:37:16;;;;;;;;;;;16.80;99.90;;;;;;4966818;28;19918;-70
2023/10/10 07:42:30;;;;;;;;;;;16.70;99.90;;;;;;4971554;28;20344;-69
2023/10/10 07:44:59;;;;;;;;;;;16.70;99.90;;;;;;4958283;28;19922;-69
2023/10/10 07:47:27;;;;;;;;;;;16.60;99.90;;;;;;4962217;28;19945;-70
2023/10/10 07:49:53;;;;;;;;;;;16.60;99.90;;;;;;4965685;28;19914;-70
2023/10/10 07:52:20;;;;;;;;;;;16.60;99.90;;;;;;4964531;28;19925;-71
2023/10/10 07:54:51;;;;;;;;;;;16.60;99.90;;;;;;4965297;28;19914;-70
2023/10/10 07:57:22;;;;;;;;;;;16.50;99.90;;;;;;4961708;28;19937;-70
2023/10/10 07:59:58;;;;;;;;;;;16.60;99.90;;;;;;4963568;28;20405;-70
2023/10/10 08:04:55;;;;;;;;;;;16.50;99.90;;;;;;4962648;28;19953;-70
2023/10/10 08:07:24;;;;;;;;;;;16.50;99.90;;;;;;4958722;28;20270;-70
2023/10/10 08:10:11;;;;;;;;;;;16.50;99.90;;;;;;4965809;28;19925;-71
2023/10/10 08:12:37;;;;;;;;;;;16.40;99.90;;;;;;4968637;28;19919;-70
2023/10/10 08:15:18;;;;;;;;;;;16.40;99.90;;;;;;4964790;28;20006;-71
2023/10/10 08:17:54;;;;;;;;;;;16.40;99.90;;;;;;4966300;28;19917;-69
2023/10/10 08:23:07;;;;;;;;;;;16.30;99.90;;;;;;4962597;28;20009;-69
2023/10/10 08:25:33;;;;;;;;;;;16.30;99.90;;;;;;4962198;28;19917;-71
2023/10/10 08:27:59;;;;;;;;;;;16.30;99.90;;;;;;4963372;28;20364;-70
2023/10/10 08:30:27;;;;;;;;;;;16.40;99.90;;;;;;4959885;28;19914;-70
2023/10/10 08:32:57;;;;;;;;;;;16.40;99.90;;;;;;4959898;28;19910;-71
2023/10/10 08:35:23;;;;;;;;;;;16.50;99.90;;;;;;4964531;28;20865;-70
2023/10/10 08:37:50;;;;;;;;;;;16.60;99.90;;;;;;4960262;28;20050;-70
2023/10/10 08:40:22;;;;;;;;;;;16.60;99.90;;;;;;4960909;28;19914;-71
2023/10/10 08:42:51;;;;;;;;;;;16.70;99.90;;;;;;4964370;28;19920;-70
2023/10/10 08:45:22;;;;;;;;;;;16.70;99.90;;;;;;4957411;28;19918;-69
2023/10/10 08:48:02;;;;;;;;;;;16.80;99.90;;;;;;4964467;28;19914;-70
2023/10/10 08:50:32;;;;;;;;;;;16.70;99.90;;;;;;4962416;28;20373;-71
2023/10/10 08:52:59;;;;;;;;;;;16.70;99.90;;;;;;4961070;28;20013;-71
2023/10/10 08:55:28;;;;;;;;;;;16.80;99.90;;;;;;4957493;28;19914;-70
2023/10/10 08:57:57;;;;;;;;;;;17.00;99.90;;;;;;4961642;28;20374;-72
2023/10/10 09:00:26;;;;;;;;;;;17.40;99.90;;;;;;4959363;28;20821;-70
2023/10/10 09:02:55;;;;;;;;;;;18.20;99.90;;;;;;4962950;28;20259;-70
2023/10/10 09:05:23;;;;;;;;;;;18.70;99.90;;;;;;4959354;28;20428;-71
2023/10/10 09:07:55;;;;;;;;;;;18.80;99.90;;;;;;4966439;28;20332;-74
2023/10/10 09:10:28;;;;;;;;;;;18.80;99.90;;;;;;4962535;28;19969;-72
2023/10/10 09:12:58;;;;;;;;;;;18.70;99.90;;;;;;4962413;28;19944;-71
2023/10/10 09:15:27;;;;;;;;;;;18.50;99.90;;;;;;4964378;28;20001;-71
2023/10/10 09:17:58;;;;;;;;;;;18.30;99.90;;;;;;4960273;28;20647;-71
2023/10/10 09:20:30;;;;;;;;;;;18.20;99.90;;;;;;4960663;28;19924;-71
2023/10/10 09:23:04;;;;;;;;;;;18.10;99.90;;;;;;4960314;28;20305;-71
2023/10/10 09:25:42;;;;;;;;;;;18.00;99.90;;;;;;4961771;28;19914;-71
2023/10/10 09:28:10;;;;;;;;;;;18.00;99.90;;;;;;4962668;28;19957;-71
2023/10/10 09:30:45;;;;;;;;;;;18.00;99.90;;;;;;4958919;28;19989;-71
2023/10/10 09:33:14;;;;;;;;;;;18.00;99.90;;;;;;4961391;28;20676;-71
2023/10/10 09:35:40;;;;;;;;;;;18.10;99.90;;;;;;4960748;28;20361;-71
2023/10/10 09:38:12;;;;;;;;;;;18.20;99.90;;;;;;4963455;28;20373;-72
2023/10/10 09:40:40;;;;;;;;;;;18.30;99.90;;;;;;4963808;28;20144;-71
2023/10/10 09:43:12;;;;;;;;;;;18.30;99.90;;;;;;4944297;28;19916;-72
2023/10/10 09:45:55;;;;;;;;;;;18.30;99.90;;;;;;4945813;28;20604;-71
2023/10/10 09:53:49;;;;;;;;;;;18.90;99.90;;;;;;4963414;28;20475;-72
2023/10/10 09:56:15;;;;;;;;;;;19.60;99.90;;;;;;4960408;28;20001;-72
2023/10/10 09:58:42;;;;;;;;;;;20.00;99.90;;;;;;4949356;28;20009;-71
2023/10/10 10:01:18;;;;;;;;;;;20.40;99.90;;;;;;4959189;28;20518;-71
2023/10/10 10:03:56;;;;;;;;;;;20.50;99.90;;;;;;4963764;28;19925;-71
2023/10/10 10:06:40;;;;;;;;;;;20.50;99.90;;;;;;4957956;28;19921;-71
2023/10/10 10:09:36;;;;;;;;;;;20.40;99.90;;;;;;4965733;28;19914;-71
2023/10/10 10:12:04;;;;;;;;;;;20.50;99.90;;;;;;4970441;28;20420;-70
2023/10/10 10:14:35;;;;;;;;;;;20.90;99.90;;;;;;4965609;28;19917;-71
2023/10/10 10:17:12;;;;;;;;;;;21.30;99.90;;;;;;4965547;28;20259;-72
2023/10/10 10:19:47;;;;;;;;;;;21.50;99.90;;;;;;4961853;28;20365;-71
2023/10/10 10:22:21;;;;;;;;;;;22.10;99.90;;;;;;4966209;28;19917;-72
2023/10/10 10:24:46;;;;;;;;;;;22.30;99.90;;;;;;4967144;28;20347;-72
2023/10/10 10:30:07;;;;;;;;;;;26.90;99.90;;;;;;4959405;28;19921;-74
2023/10/10 10:32:39;;;;;;;;;;;28.70;99.90;;;;;;4962319;28;19933;-71
2023/10/10 10:35:12;;;;;;;;;;;30.10;97.70;;;;;;4968491;28;19910;-72
2023/10/10 10:37:39;;;;;;;;;;;30.90;96.60;;;;;;4965322;28;19914;-71
2023/10/10 10:42:46;;;;;;;;;;;31.40;93.30;;;;;;4965068;28;19914;-72
2023/10/10 10:45:38;;;;;;;;;;;31.30;93.80;;;;;;4963423;28;20020;-74
2023/10/10 10:48:07;;;;;;;;;;;30.80;92.70;;;;;;4963651;28;19914;-74
2023/10/10 10:50:43;;;;;;;;;;;29.00;95.10;;;;;;4966488;28;19961;-74
2023/10/10 10:53:31;;;;;;;;;;;28.20;95.90;;;;;;4964528;28;19946;-73
2023/10/10 10:56:37;;;;;;;;;;;27.70;96.70;;;;;;4965880;28;19919;-72
2023/10/10 11:01:21;;;;;;;;;;;26.70;99.30;;;;;;4960666;28;20045;-73
2023/10/10 11:03:51;;;;;;;;;;;26.50;98.90;;;;;;4963434;28;20063;-73
2023/10/10 11:06:20;;;;;;;;;;;26.50;99.10;;;;;;4961825;28;19954;-72
2023/10/10 11:14:00;;;;;;;;;;;26.00;99.30;;;;;;4964476;28;20308;-67
2023/10/10 11:16:37;;;;;;;;;;;25.90;99.90;;;;;;4963480;28;19968;-71
2023/10/10 11:19:24;;;;;;;;;;;25.40;99.90;;;;;;4962241;28;20253;-71
2023/10/10 11:21:53;;;;;;;;;;;25.10;99.90;;;;;;4965597;28;19918;-71
2023/10/10 11:24:26;;;;;;;;;;;25.00;99.90;;;;;;4962549;28;19922;-71
2023/10/10 11:27:07;;;;;;;;;;;25.00;99.90;;;;;;4962546;28;20524;-70
2023/10/10 11:29:44;;;;;;;;;;;24.90;99.90;;;;;;4964119;28;19960;-71
2023/10/10 11:32:14;;;;;;;;;;;24.70;99.90;;;;;;4958590;28;19953;-71
2023/10/10 11:34:44;;;;;;;;;;;24.50;99.90;;;;;;4965764;28;19985;-71
2023/10/10 11:37:12;;;;;;;;;;;24.10;99.90;;;;;;4963718;28;19921;-71
2023/10/10 11:39:46;;;;;;;;;;;24.20;99.90;;;;;;4958649;28;19961;-71
2023/10/10 11:42:22;;;;;;;;;;;24.30;99.90;;;;;;4966290;28;20424;-70
2023/10/10 11:44:50;;;;;;;;;;;24.50;99.90;;;;;;4960315;28;19922;-70
2023/10/10 11:47:24;;;;;;;;;;;24.70;99.90;;;;;;4964009;28;19968;-70
2023/10/10 11:50:17;;;;;;;;;;;24.50;99.90;;;;;;4960319;28;19918;-70
2023/10/10 11:52:58;;;;;;;;;;;24.60;99.90;;;;;;4961885;28;19913;-70
2023/10/10 11:55:24;;;;;;;;;;;24.50;99.90;;;;;;4947314;28;19977;-70
2023/10/10 11:57:50;;;;;;;;;;;24.50;99.90;;;;;;4958629;28;20012;-70
2023/10/10 12:00:22;;;;;;;;;;;24.40;99.90;;;;;;4962933;28;19910;-70
2023/10/10 12:02:51;;;;;;;;;;;24.30;99.90;;;;;;4966282;28;19921;-70
2023/10/10 12:06:19;;;;;;;;;;;24.10;99.90;;;;;;4965146;28;20365;-70
2023/10/10 12:08:15;;;;;;;;;;;24.00;99.90;;;;;;4955977;28;19918;-71
2023/10/10 12:10:47;;;;;;;;;;;23.80;99.90;;;;;;4958211;28;19914;-71
2023/10/10 12:15:57;;;;;;;;;;;23.70;99.90;;;;;;4965221;28;19918;-70
2023/10/10 12:18:26;;;;;;;;;;;23.60;99.90;;;;;;4964497;28;20227;-70
2023/10/10 12:20:55;;;;;;;;;;;23.50;99.90;;;;;;4960908;28;20654;-70
2023/10/10 12:23:24;;;;;;;;;;;23.40;99.90;;;;;;4960247;28;19918;-70
2023/10/10 12:25:49;;;;;;;;;;;23.30;99.90;;;;;;4962745;28;20001;-71
2023/10/10 12:28:18;;;;;;;;;;;23.20;99.90;;;;;;4956755;28;19917;-71
2023/10/10 12:30:44;;;;;;;;;;;23.20;99.90;;;;;;4961982;28;19958;-71
2023/10/10 12:33:13;;;;;;;;;;;23.00;99.90;;;;;;4959153;28;20317;-71
2023/10/10 12:35:42;;;;;;;;;;;23.00;99.90;;;;;;4963059;28;19914;-71
2023/10/10 12:38:08;;;;;;;;;;;23.00;99.90;;;;;;4958669;28;19976;-71
2023/10/10 12:40:34;;;;;;;;;;;23.10;99.90;;;;;;4963778;28;20305;-70
2023/10/10 12:43:01;;;;;;;;;;;23.20;99.90;;;;;;4964821;28;19957;-71
2023/10/10 12:45:28;;;;;;;;;;;23.20;99.90;;;;;;4956805;28;19929;-70
2023/10/10 12:47:53;;;;;;;;;;;23.20;99.90;;;;;;4959137;28;19914;-70
2023/10/10 12:50:26;;;;;;;;;;;23.20;99.90;;;;;;4960428;28;20040;-70
2023/10/10 12:53:07;;;;;;;;;;;23.20;99.90;;;;;;4963485;28;19914;-70
2023/10/10 12:55:34;;;;;;;;;;;23.10;99.90;;;;;;4962571;28;19917;-68
2023/10/10 12:58:08;;;;;;;;;;;22.80;99.90;;;;;;4959924;28;20280;-70
2023/10/10 13:00:34;;;;;;;;;;;22.70;99.90;;;;;;4963242;28;20013;-70
2023/10/10 13:03:00;;;;;;;;;;;22.70;99.90;;;;;;4962801;28;20687;-70
2023/10/10 13:05:28;;;;;;;;;;;22.70;99.90;;;;;;4960732;28;19925;-70
2023/10/10 13:07:55;;;;;;;;;;;22.80;99.90;;;;;;4958717;28;19957;-70
2023/10/10 13:10:26;;;;;;;;;;;22.80;99.90;;;;;;4958438;28;19918;-70
2023/10/10 13:12:53;;;;;;;;;;;22.70;99.90;;;;;;4964385;28;20354;-69
2023/10/10 13:15:18;;;;;;;;;;;22.60;99.90;;;;;;4962712;28;19913;-69
2023/10/10 13:17:50;;;;;;;;;;;22.60;99.90;;;;;;4960358;28;19921;-69
2023/10/10 13:20:17;;;;;;;;;;;22.60;99.90;;;;;;4963877;28;19920;-70
2023/10/10 13:22:43;;;;;;;;;;;22.60;99.90;;;;;;4963629;28;20361;-70
2023/10/10 13:25:10;;;;;;;;;;;22.50;99.90;;;;;;4961145;28;19964;-70
2023/10/10 13:27:36;;;;;;;;;;;22.50;99.90;;;;;;4961215;28;19914;-69
2023/10/10 13:30:03;;;;;;;;;;;22.50;99.90;;;;;;4963083;28;20044;-71
2023/10/10 13:32:28;;;;;;;;;;;22.50;99.90;;;;;;4963224;28;20215;-69
2023/10/10 13:34:54;;;;;;;;;;;22.70;99.90;;;;;;4959284;28;19924;-70
2023/10/10 13:37:19;;;;;;;;;;;22.70;99.90;;;;;;4960292;28;19961;-70
2023/10/10 13:39:48;;;;;;;;;;;22.70;99.90;;;;;;4955133;28;19910;-71
2023/10/10 13:42:14;;;;;;;;;;;22.60;99.90;;;;;;4963471;28;19914;-70
2023/10/10 13:44:40;;;;;;;;;;;22.60;99.90;;;;;;4956451;28;19929;-70
2023/10/10 13:47:07;;;;;;;;;;;22.60;99.90;;;;;;4963108;28;19963;-70
2023/10/10 13:49:34;;;;;;;;;;;22.60;99.90;;;;;;4961830;28;19936;-71
2023/10/10 13:52:04;;;;;;;;;;;22.50;99.90;;;;;;4957957;28;19967;-69
2023/10/10 13:54:30;;;;;;;;;;;22.50;99.90;;;;;;4958477;28;19910;-69
2023/10/10 13:56:56;;;;;;;;;;;22.40;99.90;;;;;;4960165;28;19914;-69
2023/10/10 13:59:22;;;;;;;;;;;22.50;99.90;;;;;;4960659;28;19969;-69
2023/10/10 14:01:47;;;;;;;;;;;22.50;99.90;;;;;;4959226;28;19914;-66
2023/10/10 14:04:23;;;;;;;;;;;22.70;99.90;;;;;;4961966;28;19917;-69
2023/10/10 14:06:49;;;;;;;;;;;22.80;99.90;;;;;;4962703;28;19928;-69
2023/10/10 14:09:31;;;;;;;;;;;22.80;99.90;;;;;;4957135;28;20235;-68
2023/10/10 14:12:02;;;;;;;;;;;22.70;99.90;;;;;;4966956;28;19918;-68
2023/10/10 14:14:30;;;;;;;;;;;22.80;99.90;;;;;;4955887;28;20322;-69
2023/10/10 14:16:56;;;;;;;;;;;22.80;99.90;;;;;;4959599;28;20017;-69
2023/10/10 14:19:24;;;;;;;;;;;22.80;99.90;;;;;;4957542;28;20013;-65
2023/10/10 14:21:52;;;;;;;;;;;22.80;99.90;;;;;;4963080;28;20313;-69
2023/10/10 14:24:18;;;;;;;;;;;22.80;99.90;;;;;;4958759;28;19926;-69
2023/10/10 14:26:44;;;;;;;;;;;22.70;99.90;;;;;;4962607;28;19910;-69
2023/10/10 14:29:12;;;;;;;;;;;22.60;99.90;;;;;;4960746;28;20373;-69
2023/10/10 14:31:44;;;;;;;;;;;22.40;99.90;;;;;;4959570;28;19986;-69
2023/10/10 14:34:19;;;;;;;;;;;22.30;99.90;;;;;;4961913;28;20221;-69
2023/10/10 14:36:46;;;;;;;;;;;22.20;99.90;;;;;;4958485;28;19920;-69
2023/10/10 14:39:28;;;;;;;;;;;22.10;99.90;;;;;;4962295;28;19925;-69
2023/10/10 14:41:57;;;;;;;;;;;22.00;99.90;;;;;;4963539;28;19957;-69
2023/10/10 14:44:23;;;;;;;;;;;22.00;99.90;;;;;;4961403;28;19978;-67
2023/10/10 14:46:51;;;;;;;;;;;21.90;99.90;;;;;;4957806;28;19921;-69
2023/10/10 14:49:28;;;;;;;;;;;21.90;99.90;;;;;;4962333;28;19998;-69
2023/10/10 14:51:55;;;;;;;;;;;21.70;99.90;;;;;;4963847;28;19921;-70
2023/10/10 14:54:21;;;;;;;;;;;21.70;99.90;;;;;;4959733;28;19918;-70
2023/10/10 14:56:49;;;;;;;;;;;21.60;99.90;;;;;;4965849;28;20436;-70
2023/10/10 14:59:20;;;;;;;;;;;21.60;99.90;;;;;;4967010;28;20046;-68
2023/10/10 15:01:48;;;;;;;;;;;21.40;99.90;;;;;;4961710;28;19962;-69
2023/10/10 15:04:17;;;;;;;;;;;21.30;99.90;;;;;;4966048;28;20378;-69
2023/10/10 15:06:43;;;;;;;;;;;21.20;99.90;;;;;;4966141;28;19950;-70
2023/10/10 15:09:13;;;;;;;;;;;21.10;99.90;;;;;;4961207;28;19920;-70
2023/10/10 15:11:42;;;;;;;;;;;21.00;99.90;;;;;;4966480;28;19914;-69
2023/10/10 15:14:09;;;;;;;;;;;20.80;99.90;;;;;;4964764;28;20381;-69
2023/10/10 15:16:36;;;;;;;;;;;20.80;99.90;;;;;;4966506;28;20388;-69
2023/10/10 15:19:03;;;;;;;;;;;20.70;99.90;;;;;;4965649;28;19981;-69
2023/10/10 15:21:32;;;;;;;;;;;20.70;99.90;;;;;;4964515;28;20000;-70
2023/10/10 15:23:58;;;;;;;;;;;20.70;99.90;;;;;;4958061;28;20596;-69
2023/10/10 15:26:24;;;;;;;;;;;20.70;99.90;;;;;;4963939;28;19937;-69
2023/10/10 15:28:52;;;;;;;;;;;20.60;99.90;;;;;;4968629;28;20460;-69
2023/10/10 15:31:24;;;;;;;;;;;20.60;99.90;;;;;;4965248;28;19918;-70
2023/10/10 15:33:53;;;;;;;;;;;20.50;99.90;;;;;;4961077;28;19918;-69
2023/10/10 15:36:18;;;;;;;;;;;20.50;99.90;;;;;;4964858;28;20000;-69
2023/10/10 15:38:44;;;;;;;;;;;20.50;99.90;;;;;;4960856;28;20023;-69
2023/10/10 15:41:17;;;;;;;;;;;20.40;99.90;;;;;;4960927;28;19980;-70
2023/10/10 15:43:49;;;;;;;;;;;20.40;99.90;;;;;;4965412;28;19910;-71
2023/10/10 15:46:15;;;;;;;;;;;20.30;99.90;;;;;;4963875;28;19922;-68
2023/10/10 15:48:48;;;;;;;;;;;20.20;99.90;;;;;;4960871;28;20385;-71
2023/10/10 15:51:15;;;;;;;;;;;20.10;99.90;;;;;;4967654;28;19920;-72
2023/10/10 15:53:42;;;;;;;;;;;20.00;99.90;;;;;;4964067;28;19921;-69
2023/10/10 15:56:10;;;;;;;;;;;20.00;99.90;;;;;;4963721;28;19917;-74
2023/10/10 15:58:42;;;;;;;;;;;19.90;99.90;;;;;;4966963;28;19922;-64
2023/10/10 16:01:11;;;;;;;;;;;19.70;99.90;;;;;;4963181;28;19914;-63
2023/10/10 16:03:38;;;;;;;;;;;19.70;99.90;;;;;;4965111;28;19941;-63
2023/10/10 16:06:07;;;;;;;;;;;19.60;99.90;;;;;;4965262;28;19965;-64
2023/10/10 16:08:36;;;;;;;;;;;19.60;99.90;;;;;;4962472;28;19964;-63
2023/10/10 16:11:06;;;;;;;;;;;19.50;99.90;;;;;;4962114;28;19983;-63
2023/10/10 16:13:36;;;;;;;;;;;19.50;99.90;;;;;;4963314;28;19921;-66
2023/10/10 16:16:08;;;;;;;;;;;19.50;99.90;;;;;;4967467;28;20346;-73
2023/10/10 16:18:35;;;;;;;;;;;19.40;99.90;;;;;;4962383;28;19921;-74
2023/10/10 16:21:04;;;;;;;;;;;19.30;99.90;;;;;;4965152;28;20613;-72
2023/10/10 16:23:32;;;;;;;;;;;19.20;99.90;;;;;;4959226;28;19910;-72
2023/10/10 16:25:58;;;;;;;;;;;19.00;99.90;;;;;;4964625;28;19915;-72
2023/10/10 16:28:25;;;;;;;;;;;18.90;99.90;;;;;;4959455;28;20360;-72
2023/10/10 16:30:53;;;;;;;;;;;18.80;99.90;;;;;;4964966;28;20301;-72
2023/10/10 16:33:23;;;;;;;;;;;18.60;99.90;;;;;;4964736;28;19914;-72
2023/10/10 16:35:49;;;;;;;;;;;18.50;99.90;;;;;;4960590;28;19998;-73
2023/10/10 16:38:21;;;;;;;;;;;18.30;99.90;;;;;;4963047;28;19914;-73
2023/10/10 16:40:50;;;;;;;;;;;18.20;99.90;;;;;;4960303;28;19917;-72
2023/10/10 16:43:17;;;;;;;;;;;18.20;99.90;;;;;;4964858;28;19968;-72
2023/10/10 16:45:43;;;;;;;;;;;18.10;99.90;;;;;;4958191;28;19926;-63
2023/10/10 16:48:08;;;;;;;;;;;18.00;99.90;;;;;;4962851;28;19968;-63
2023/10/10 16:50:34;;;;;;;;;;;17.90;99.90;;;;;;4964051;28;19917;-63
2023/10/10 16:53:02;;;;;;;;;;;17.80;99.90;;;;;;4961369;28;20079;-63
2023/10/10 16:55:28;;;;;;;;;;;17.70;99.90;;;;;;4962322;28;19914;-64
2023/10/10 16:57:53;;;;;;;;;;;17.60;99.90;;;;;;4957968;28;19968;-63
2023/10/10 17:00:21;;;;;;;;;;;17.70;99.90;;;;;;4962730;28;19918;-63
2023/10/10 17:02:49;;;;;;;;;;;17.70;99.90;;;;;;4962117;28;19913;-63
2023/10/10 17:05:15;;;;;;;;;;;17.60;99.90;;;;;;4964243;28;20368;-62
2023/10/10 17:07:42;;;;;;;;;;;17.60;99.90;;;;;;4962004;28;19918;-63
2023/10/10 17:10:13;;;;;;;;;;;17.50;99.90;;;;;;4966690;28;20377;-72
2023/10/10 17:12:42;;;;;;;;;;;17.50;99.90;;;;;;4966038;28;19929;-64
2023/10/10 17:15:18;;;;;;;;;;;17.40;99.90;;;;;;4963117;28;19914;-64
2023/10/10 17:17:45;;;;;;;;;;;17.40;99.90;;;;;;4959256;28;20325;-65
2023/10/10 17:20:17;;;;;;;;;;;17.30;99.90;;;;;;4940538;28;19918;-62
2023/10/10 17:22:45;;;;;;;;;;;17.30;99.90;;;;;;4961809;28;19910;-64
2023/10/10 17:25:12;;;;;;;;;;;17.30;99.90;;;;;;4939248;28;21456;-67